MSLPTNCM

Guest
Details From MSLP - El Salvador Intl
To TNCM - St Maarten - Princess Juliana Intl
Flight Number -
Tags Generated
Created
Modified
Stats Distance 1,523 nm / 2,821 km
Max Altitude 0 ft / 0 m
Waypoints 6
Social Downloads 6
Likes 0
Share VATSIM

Download

Looking for another format? Having issues loading an existing format? Contact us
Advertisement - Login to hide

Notes

Generated

Route

MSLP LEVOR RAGUS GABYY PJM07 TNCM

ID Type Via Altitude Latitude Longitude Leg Dist Tot Dist Heading (true) Name
O MSLP APT - 0 ft / 0 m 13.45400˚ -89.04775˚ - 0 nm - El Salvador Intl
LEVOR FIX - 0 ft / 0 m 15.00000˚ -81.58750˚ 444 nm 444 nm 77° / 79° -
RAGUS FIX - 0 ft / 0 m 17.24422˚ -70.95872˚ 627 nm 1071 nm 76° / 79° -
GABYY FIX - 0 ft / 0 m 17.69797˚ -66.72661˚ 243 nm 1315 nm 83° / 84° -
PJM07 FIX - 0 ft / 0 m 18.02582˚ -63.24012˚ 200 nm 1516 nm 84° / 85° -
O TNCM APT - 0 ft / 0 m 18.03937˚ -63.11961˚ 6 nm 1522 nm 83° / 83° -

Altitude Profile

Advertisement - Login to hide

Weather


0- 5 10 15 20 25 30 35+ Temperature / ° C

Clouds and Precipitation
Forecast for 2017-12-15 12:00 UTC. Updated an hour ago

Ground ~20,000 ft ~40,000 ft Winds

MSLP

Details ICAO MSLP (SAL)
Name El Salvador Intl
Region El Salvador
Timezone America/El_Salvador (UTC-6.0)
Stats Elevation 101 ft / 31 m (AMSL)
Location 13.445666° -89.051739°
Runways 2
Magnetic Variation 0.451° E

METAR

MSLP 150950Z 06003KT 020V080 CAVOK 22/19 Q1010 A2988 NOSIG

Decode

TAF

Not found

Departure Runways

ID Width Length Bearing (true) Bearing (mag) Surface Threshold Offset Overrun Length
07 148 ft / 45 m 10,507 ft / 3,202 m 69.86° 69.41° Asphalt 0 ft / 0 m 200 ft / 61 m
18 75 ft / 23 m 2,639 ft / 804 m 180.00° 179.55° Asphalt 0 ft / 0 m 120 ft / 37 m
25 148 ft / 45 m 10,507 ft / 3,202 m 249.87° 249.42° Asphalt 0 ft / 0 m 200 ft / 61 m
36 75 ft / 23 m 2,639 ft / 804 m 0.00° 359.55° Asphalt 0 ft / 0 m 120 ft / 37 m

TNCM

Details ICAO TNCM (SXM)
Name St Maarten - Princess Juliana Intl
Region Caribbean Netherlands, Aruba, Curaçao, Sint Maarten
Timezone Unknown (UTC+0.0)
Stats Elevation 12 ft / 4 m (AMSL)
Location 18.040889° -63.108974°
Runways 1
Magnetic Variation 14.325° W

METAR

TNCM 151000Z 07010KT 040V100 9999 FEW019 26/20 Q1017 A3005 NOSIG

Decode

TAF

TAF TNCM 150529Z 1506/1606 07008KT P6SM SCT020 FM151200 08017KT P6SM VCSH FEW020 SCT040 FM152200 07012KT P6SM FEW022

Decode

Destination Runways

ID Width Length Bearing (true) Bearing (mag) Surface Threshold Offset Overrun Length
10 148 ft / 45 m 7,464 ft / 2,275 m 81.43° 95.76° Asphalt 0 ft / 0 m 151 ft / 46 m
28 148 ft / 45 m 7,464 ft / 2,275 m 261.44° 275.77° Asphalt 397 ft / 121 m 0 ft / 0 m

Popular Alternatives